createdAt,value
2022-10-19T00:01:19.446Z,3.63
2022-10-19T00:06:19.812Z,3.95
2022-10-19T00:08:46.349Z,3.67
2022-10-19T00:11:13.025Z,4.03
2022-10-19T00:13:39.646Z,3.75
2022-10-19T00:16:12.040Z,4.13
2022-10-19T00:18:39.677Z,4.28
2022-10-19T00:21:08.011Z,4.18
2022-10-19T00:23:34.728Z,3.47
2022-10-19T00:26:01.604Z,3.25
2022-10-19T00:28:28.214Z,3.22
2022-10-19T00:30:54.833Z,3.40
2022-10-19T00:33:22.561Z,3.65
2022-10-19T00:35:52.596Z,3.08
2022-10-19T00:38:20.858Z,4.20
2022-10-19T00:40:48.297Z,3.90
2022-10-19T00:43:17.007Z,5.30
2022-10-19T00:45:44.034Z,4.20
2022-10-19T00:48:14.925Z,4.63
2022-10-19T00:50:42.518Z,4.40
2022-10-19T00:53:09.787Z,3.50
2022-10-19T00:55:38.943Z,4.85
2022-10-19T00:58:05.776Z,3.90
2022-10-19T01:00:33.829Z,5.22
2022-10-19T01:03:02.813Z,4.57
2022-10-19T01:05:29.898Z,4.78
2022-10-19T01:07:56.952Z,4.90
2022-10-19T01:10:41.983Z,4.85
2022-10-19T01:13:11.486Z,5.97
2022-10-19T01:15:54.865Z,4.97
2022-10-19T01:18:31.279Z,5.60
2022-10-19T01:21:06.480Z,5.03
2022-10-19T01:23:59.188Z,5.10
2022-10-19T01:26:46.717Z,4.65
2022-10-19T01:29:51.020Z,5.07
2022-10-19T01:32:28.145Z,3.88
2022-10-19T01:35:04.878Z,3.40
2022-10-19T01:37:45.913Z,5.68
2022-10-19T01:40:24.700Z,5.13
2022-10-19T01:42:57.250Z,5.55
2022-10-19T01:45:47.498Z,5.97
2022-10-19T01:48:25.996Z,6.30
2022-10-19T01:50:57.376Z,5.95
2022-10-19T01:53:26.466Z,5.18
2022-10-19T01:55:55.627Z,5.68
2022-10-19T01:58:27.753Z,3.97
2022-10-19T02:00:58.110Z,3.80
2022-10-19T02:03:25.778Z,4.40
2022-10-19T02:05:54.154Z,4.70
2022-10-19T02:08:26.927Z,3.60
2022-10-19T02:10:55.960Z,3.78
2022-10-19T02:13:24.657Z,4.82
2022-10-19T02:15:54.697Z,4.95
2022-10-19T02:18:28.655Z,4.15
2022-10-19T02:20:55.386Z,4.00
2022-10-19T02:23:25.524Z,4.10
2022-10-19T02:25:52.298Z,3.55
2022-10-19T02:28:19.029Z,3.00
2022-10-19T02:30:45.737Z,2.88
2022-10-19T02:33:12.656Z,3.20
2022-10-19T02:35:39.603Z,3.20
2022-10-19T02:38:10.919Z,2.38
2022-10-19T02:40:43.561Z,2.70
2022-10-19T02:43:14.176Z,2.58
2022-10-19T02:45:51.041Z,2.30
2022-10-19T02:48:23.273Z,2.20
2022-10-19T02:50:49.952Z,2.45
2022-10-19T02:53:16.818Z,2.33
2022-10-19T02:55:43.824Z,2.20
2022-10-19T02:58:10.422Z,2.17
2022-10-19T03:00:37.021Z,2.75
2022-10-19T03:03:03.694Z,2.72
2022-10-19T03:05:30.222Z,4.38
2022-10-19T03:07:56.783Z,3.45
2022-10-19T03:10:23.390Z,2.92
2022-10-19T03:12:49.984Z,3.70
2022-10-19T03:15:18.053Z,3.58
2022-10-19T03:17:44.897Z,3.17
2022-10-19T03:20:12.067Z,3.85
2022-10-19T03:22:38.804Z,3.70
2022-10-19T03:25:05.773Z,3.70
2022-10-19T03:27:32.651Z,3.55
2022-10-19T03:29:59.581Z,4.03
2022-10-19T03:32:26.122Z,3.35
2022-10-19T03:34:52.694Z,2.88
2022-10-19T03:37:19.333Z,3.05
2022-10-19T03:39:45.957Z,3.10
2022-10-19T03:42:12.496Z,3.70
2022-10-19T03:44:39.021Z,3.85
2022-10-19T03:47:05.584Z,3.20
2022-10-19T03:49:34.552Z,3.10
2022-10-19T03:54:30.112Z,4.88
2022-10-19T03:56:56.686Z,4.20
2022-10-19T03:59:24.296Z,5.38
2022-10-19T04:01:50.826Z,6.03
2022-10-19T04:04:19.019Z,5.13
2022-10-19T04:06:48.930Z,4.53
2022-10-19T04:09:20.251Z,4.13
2022-10-19T04:11:47.381Z,3.25
2022-10-19T04:14:22.859Z,3.08
2022-10-19T04:16:58.845Z,3.30
2022-10-19T04:19:25.538Z,3.75
2022-10-19T04:21:52.072Z,4.28
2022-10-19T04:24:19.240Z,4.07
2022-10-19T04:26:49.996Z,3.90
2022-10-19T04:29:19.069Z,3.35
2022-10-19T04:31:46.529Z,2.83
2022-10-19T04:34:13.187Z,2.83
2022-10-19T04:36:39.700Z,3.92
2022-10-19T04:39:07.040Z,4.28
2022-10-19T04:41:34.204Z,4.15
2022-10-19T04:44:03.153Z,3.90
2022-10-19T04:46:30.508Z,4.25
2022-10-19T04:48:58.073Z,4.60
2022-10-19T04:51:25.465Z,4.38
2022-10-19T04:53:59.520Z,4.10
2022-10-19T04:56:27.363Z,3.25
2022-10-19T04:58:56.499Z,3.55
2022-10-19T05:01:24.254Z,3.17
2022-10-19T05:03:59.172Z,3.60
2022-10-19T05:06:26.339Z,4.00
2022-10-19T05:08:53.264Z,4.18
2022-10-19T05:11:20.228Z,3.97
2022-10-19T05:13:47.385Z,5.15
2022-10-19T05:16:17.988Z,5.30
2022-10-19T05:18:56.123Z,4.30
2022-10-19T05:21:22.701Z,3.30
2022-10-19T05:23:53.053Z,4.50
2022-10-19T05:26:22.120Z,4.60
2022-10-19T05:28:57.867Z,4.72
2022-10-19T05:31:30.230Z,4.50
2022-10-19T05:33:57.186Z,4.00
2022-10-19T05:36:27.059Z,3.78
2022-10-19T05:38:55.859Z,3.33
2022-10-19T05:41:24.280Z,3.45
2022-10-19T05:43:56.122Z,4.45
2022-10-19T05:46:23.403Z,3.20
2022-10-19T05:48:50.175Z,2.72
2022-10-19T05:51:19.753Z,2.90
2022-10-19T05:53:46.803Z,2.92
2022-10-19T05:56:21.337Z,3.05
2022-10-19T05:58:48.918Z,2.85
2022-10-19T06:01:18.830Z,2.78
2022-10-19T06:03:47.099Z,2.55
2022-10-19T06:06:13.900Z,3.08
2022-10-19T06:08:40.540Z,3.58
2022-10-19T06:11:18.020Z,2.72
2022-10-19T06:13:46.533Z,3.45
2022-10-19T06:16:14.919Z,3.38
2022-10-19T06:18:42.727Z,2.83
2022-10-19T06:21:14.488Z,3.25
2022-10-19T06:26:12.353Z,3.72
2022-10-19T06:28:40.355Z,4.68
2022-10-19T06:31:09.204Z,5.05
2022-10-19T06:33:36.646Z,5.90
2022-10-19T06:36:12.339Z,6.45
2022-10-19T06:38:39.068Z,5.97
2022-10-19T06:41:06.136Z,5.38
2022-10-19T06:43:33.183Z,5.75
2022-10-19T06:46:07.224Z,6.20
2022-10-19T06:48:34.007Z,6.65
2022-10-19T06:51:02.147Z,5.22
2022-10-19T06:53:29.254Z,4.15
2022-10-19T06:55:59.264Z,5.07
2022-10-19T06:58:26.278Z,5.18
2022-10-19T07:01:00.428Z,4.32
2022-10-19T07:03:28.581Z,5.03
2022-10-19T07:05:57.098Z,5.43
2022-10-19T07:08:25.150Z,4.55
2022-10-19T07:11:04.216Z,4.43
2022-10-19T07:13:31.405Z,5.50
2022-10-19T07:16:05.535Z,5.22
2022-10-19T07:18:33.316Z,5.00
2022-10-19T07:21:01.925Z,6.05
2022-10-19T07:23:30.198Z,5.72
2022-10-19T07:26:01.512Z,5.80
2022-10-19T07:30:55.648Z,6.35
2022-10-19T07:33:22.591Z,6.45
2022-10-19T07:35:49.257Z,6.28
2022-10-19T07:38:15.986Z,6.60
2022-10-19T07:40:44.926Z,6.03
2022-10-19T07:43:14.032Z,6.40
2022-10-19T07:45:40.594Z,5.65
2022-10-19T07:48:07.254Z,5.53
2022-10-19T07:50:33.829Z,4.80
2022-10-19T07:53:00.450Z,5.72
2022-10-19T07:55:26.987Z,5.68
2022-10-19T07:57:53.642Z,5.82
2022-10-19T08:00:20.196Z,5.40
2022-10-19T08:03:00.084Z,9.70
2022-10-19T08:05:34.267Z,9.82
2022-10-19T08:08:00.878Z,8.13
2022-10-19T08:10:27.846Z,6.78
2022-10-19T08:12:54.404Z,4.63
2022-10-19T08:15:20.963Z,6.53
2022-10-19T08:17:47.527Z,6.18
2022-10-19T08:20:14.136Z,5.57
2022-10-19T08:22:41.805Z,5.40
2022-10-19T08:25:08.609Z,4.80
2022-10-19T08:30:07.071Z,5.82
2022-10-19T08:32:33.806Z,5.32
2022-10-19T08:35:00.579Z,5.75
2022-10-19T08:37:40.776Z,5.68
2022-10-19T08:40:24.145Z,6.03
2022-10-19T08:43:08.277Z,5.90
2022-10-19T08:46:01.496Z,5.55
2022-10-19T08:48:37.945Z,6.55
2022-10-19T08:51:05.903Z,6.47
2022-10-19T08:53:53.862Z,5.45
2022-10-19T08:56:49.201Z,5.97
2022-10-19T08:59:24.060Z,4.70
2022-10-19T09:02:09.308Z,5.47
2022-10-19T09:04:42.716Z,5.30
2022-10-19T09:07:29.408Z,5.35
2022-10-19T09:10:03.274Z,5.93
2022-10-19T09:12:58.472Z,5.38
2022-10-19T09:15:47.406Z,5.10
2022-10-19T09:18:25.083Z,6.05
2022-10-19T09:21:00.090Z,5.47
2022-10-19T09:23:45.643Z,6.55
2022-10-19T09:26:18.841Z,5.70
2022-10-19T09:29:05.597Z,6.22
2022-10-19T09:31:40.350Z,5.68
2022-10-19T09:34:12.425Z,6.05
2022-10-19T09:36:56.990Z,5.50
2022-10-19T09:39:27.112Z,6.72
2022-10-19T09:42:07.510Z,6.13
2022-10-19T09:44:34.390Z,5.60
2022-10-19T09:47:22.602Z,6.05
2022-10-19T09:49:49.538Z,6.50
2022-10-19T09:52:31.340Z,7.05
2022-10-19T09:55:24.856Z,7.47
2022-10-19T09:58:00.126Z,7.15
2022-10-19T10:00:37.059Z,7.75
2022-10-19T10:03:05.941Z,7.60
2022-10-19T10:05:39.054Z,8.05
2022-10-19T10:08:14.404Z,7.25
2022-10-19T10:11:05.138Z,7.47
2022-10-19T10:13:36.912Z,7.35
2022-10-19T10:16:08.511Z,8.23
2022-10-19T10:18:55.690Z,8.55
2022-10-19T10:21:28.816Z,6.82
2022-10-19T10:24:07.074Z,7.45
2022-10-19T10:26:43.632Z,7.05
2022-10-19T10:29:39.343Z,6.93
2022-10-19T10:32:12.360Z,8.25
2022-10-19T10:34:51.849Z,8.52
2022-10-19T10:37:39.266Z,7.93
2022-10-19T10:40:17.866Z,6.22
2022-10-19T10:42:50.302Z,6.18
2022-10-19T10:45:41.284Z,5.85
2022-10-19T10:48:24.738Z,8.63
2022-10-19T10:50:52.053Z,7.38
2022-10-19T10:53:37.080Z,10.30
2022-10-19T10:56:06.094Z,10.05
2022-10-19T10:58:44.356Z,10.43
2022-10-19T11:01:23.064Z,8.05
2022-10-19T11:04:04.249Z,6.85
2022-10-19T11:09:18.272Z,7.53
2022-10-19T11:11:50.684Z,9.35
2022-10-19T11:14:32.128Z,10.88
2022-10-19T11:17:22.966Z,8.18
2022-10-19T11:19:51.352Z,7.75
2022-10-19T11:22:36.907Z,7.50
2022-10-19T11:25:12.539Z,6.40
2022-10-19T11:28:00.867Z,5.45
2022-10-19T11:30:31.994Z,5.82
2022-10-19T11:33:05.739Z,6.40
2022-10-19T11:35:52.822Z,7.03
2022-10-19T11:38:31.193Z,6.50
2022-10-19T11:41:29.461Z,6.72
2022-10-19T11:44:26.752Z,6.45
2022-10-19T11:47:23.550Z,5.90
2022-10-19T11:50:02.048Z,5.65
2022-10-19T11:52:34.720Z,5.57
2022-10-19T11:55:49.125Z,6.28
2022-10-19T11:58:38.515Z,6.35
2022-10-19T12:01:05.136Z,7.05
2022-10-19T12:04:05.883Z,6.68
2022-10-19T12:06:48.733Z,5.00
2022-10-19T12:09:47.741Z,5.60
2022-10-19T12:12:30.843Z,6.05
2022-10-19T12:15:13.502Z,4.68
2022-10-19T12:17:45.014Z,5.70
2022-10-19T12:20:37.239Z,5.97
2022-10-19T12:23:21.563Z,5.25
2022-10-19T12:25:49.733Z,5.97
2022-10-19T12:28:26.694Z,5.50
2022-10-19T12:30:54.622Z,4.72
2022-10-19T12:33:29.007Z,5.32
2022-10-19T12:36:12.221Z,4.60
2022-10-19T12:39:00.817Z,4.50
2022-10-19T12:41:41.153Z,4.63
2022-10-19T12:44:43.980Z,4.88
2022-10-19T12:47:18.794Z,4.55
2022-10-19T12:49:51.089Z,4.47
2022-10-19T12:52:48.088Z,3.70
2022-10-19T12:55:17.525Z,4.43
2022-10-19T12:57:48.246Z,5.45
2022-10-19T13:00:23.365Z,4.63
2022-10-19T13:03:07.464Z,4.30
2022-10-19T13:05:35.614Z,4.82
2022-10-19T13:08:06.921Z,4.15
2022-10-19T13:10:35.852Z,4.85
2022-10-19T13:13:03.139Z,4.35
2022-10-19T13:15:35.822Z,4.43
2022-10-19T13:18:03.190Z,5.22
2022-10-19T13:20:29.826Z,5.13
2022-10-19T13:22:59.417Z,4.30
2022-10-19T13:25:27.978Z,4.20
2022-10-19T13:28:02.323Z,3.90
2022-10-19T13:30:38.414Z,4.30
2022-10-19T13:33:29.883Z,4.30
2022-10-19T13:35:59.081Z,4.40
2022-10-19T13:38:29.899Z,4.07
2022-10-19T13:40:56.438Z,5.50
2022-10-19T13:43:28.687Z,4.40
2022-10-19T13:46:21.588Z,3.92
2022-10-19T13:49:20.557Z,3.85
2022-10-19T13:52:22.637Z,4.22
2022-10-19T13:54:55.453Z,5.65
2022-10-19T13:57:50.026Z,4.45
2022-10-19T14:00:36.639Z,4.93
2022-10-19T14:03:29.011Z,5.28
2022-10-19T14:06:13.036Z,4.78
2022-10-19T14:09:13.706Z,4.15
2022-10-19T14:11:44.460Z,4.53
2022-10-19T14:14:10.952Z,4.28
2022-10-19T14:17:03.789Z,3.50
2022-10-19T14:19:46.137Z,4.78
2022-10-19T14:22:38.528Z,4.50
2022-10-19T14:25:21.715Z,4.20
2022-10-19T14:27:56.675Z,3.92
2022-10-19T14:30:26.909Z,4.10
2022-10-19T14:32:56.874Z,4.13
2022-10-19T14:35:36.496Z,4.45
2022-10-19T14:38:06.118Z,4.22
2022-10-19T14:40:37.524Z,4.55
2022-10-19T14:43:29.937Z,3.88
2022-10-19T14:46:08.453Z,3.50
2022-10-19T14:48:36.820Z,4.30
2022-10-19T14:51:10.002Z,4.63
2022-10-19T14:53:45.425Z,4.07
2022-10-19T14:56:31.408Z,3.95
2022-10-19T14:59:07.425Z,4.28
2022-10-19T15:01:35.514Z,4.40
2022-10-19T15:04:02.455Z,4.00
2022-10-19T15:06:32.960Z,4.63
2022-10-19T15:09:03.494Z,4.53
2022-10-19T15:11:36.522Z,4.82
2022-10-19T15:14:12.802Z,5.55
2022-10-19T15:16:39.279Z,3.80
2022-10-19T15:19:14.296Z,4.32
2022-10-19T15:21:40.836Z,4.38
2022-10-19T15:24:21.240Z,3.40
2022-10-19T15:27:06.618Z,4.07
2022-10-19T15:29:35.596Z,3.63
2022-10-19T15:32:16.686Z,3.95
2022-10-19T15:34:45.062Z,3.90
2022-10-19T15:37:19.910Z,3.33
2022-10-19T15:39:47.341Z,4.38
2022-10-19T15:42:49.676Z,3.97
2022-10-19T15:45:36.692Z,4.57
2022-10-19T15:48:21.644Z,4.05
2022-10-19T15:50:49.853Z,3.97
2022-10-19T15:53:16.769Z,4.50
2022-10-19T15:55:43.361Z,4.40
2022-10-19T15:58:16.060Z,5.25
2022-10-19T16:00:42.990Z,4.80
2022-10-19T16:03:09.602Z,4.90
2022-10-19T16:05:36.534Z,5.50
2022-10-19T16:08:03.550Z,5.38
2022-10-19T16:10:30.082Z,4.70
2022-10-19T16:12:56.713Z,5.10
2022-10-19T16:15:23.686Z,4.82
2022-10-19T16:17:55.147Z,4.97
2022-10-19T16:20:23.544Z,5.53
2022-10-19T16:22:50.907Z,6.05
2022-10-19T16:25:17.970Z,6.18
2022-10-19T16:27:44.522Z,5.72
2022-10-19T16:30:11.652Z,5.95
2022-10-19T16:32:39.861Z,5.80
2022-10-19T16:35:08.450Z,5.10
2022-10-19T16:37:35.328Z,4.68
2022-10-19T16:40:02.101Z,4.72
2022-10-19T16:42:30.539Z,5.07
2022-10-19T16:44:57.278Z,4.90
2022-10-19T16:47:23.796Z,4.40
2022-10-19T16:49:58.248Z,4.07
2022-10-19T16:52:24.807Z,4.90
2022-10-19T16:54:51.337Z,5.05
2022-10-19T16:57:17.992Z,5.32
2022-10-19T16:59:44.764Z,5.40
2022-10-19T17:02:11.846Z,6.20
2022-10-19T17:04:38.928Z,5.90
2022-10-19T17:07:05.480Z,8.35
2022-10-19T17:09:49.689Z,10.60
2022-10-19T17:12:18.646Z,10.52
2022-10-19T17:14:45.253Z,9.35
2022-10-19T17:17:12.073Z,7.45
2022-10-19T17:19:38.943Z,6.45
2022-10-19T17:22:05.756Z,6.50
2022-10-19T17:24:32.507Z,6.90
2022-10-19T17:27:03.012Z,6.53
2022-10-19T17:29:29.975Z,7.63
2022-10-19T17:31:56.600Z,6.68
2022-10-19T17:34:23.193Z,5.32
2022-10-19T17:36:49.881Z,5.60
2022-10-19T17:39:25.649Z,5.63
2022-10-19T17:42:01.253Z,5.10
2022-10-19T17:44:29.951Z,5.43
2022-10-19T17:46:56.511Z,5.03
2022-10-19T17:49:23.450Z,5.35
2022-10-19T17:51:52.895Z,6.03
2022-10-19T17:54:19.507Z,5.85
2022-10-19T17:56:46.238Z,5.10
2022-10-19T17:59:13.363Z,5.43
2022-10-19T18:01:40.361Z,6.63
2022-10-19T18:04:06.964Z,6.40
2022-10-19T18:06:36.209Z,6.70
2022-10-19T18:09:05.728Z,6.13
2022-10-19T18:11:36.992Z,6.25
2022-10-19T18:14:05.910Z,5.75
2022-10-19T18:16:35.232Z,5.75
2022-10-19T18:19:03.226Z,6.25
2022-10-19T18:21:33.645Z,6.72
2022-10-19T18:24:02.535Z,6.80
2022-10-19T18:26:31.761Z,6.38
2022-10-19T18:28:59.647Z,5.97
2022-10-19T18:31:32.038Z,6.25
2022-10-19T18:34:03.131Z,6.70
2022-10-19T18:36:31.131Z,6.82
2022-10-19T18:39:02.692Z,7.00
2022-10-19T18:41:29.762Z,5.97
2022-10-19T18:43:59.318Z,23.13
2022-10-19T18:46:26.576Z,14.38
2022-10-19T18:48:53.825Z,11.00
2022-10-19T18:51:22.059Z,9.35
2022-10-19T18:53:49.089Z,8.73
2022-10-19T18:56:18.841Z,8.20
2022-10-19T18:58:45.683Z,7.35
2022-10-19T19:01:17.907Z,7.13
2022-10-19T19:03:47.125Z,7.85
2022-10-19T19:06:16.480Z,6.43
2022-10-19T19:11:18.602Z,7.13
2022-10-19T19:13:50.738Z,6.53
2022-10-19T19:16:17.751Z,6.47
2022-10-19T19:18:44.521Z,7.35
2022-10-19T19:21:23.316Z,6.88
2022-10-19T19:23:51.493Z,6.63
2022-10-19T19:26:19.477Z,7.05
2022-10-19T19:28:49.026Z,7.45
2022-10-19T19:31:18.400Z,6.63
2022-10-19T19:33:46.970Z,6.90
2022-10-19T19:36:15.681Z,6.60
2022-10-19T19:38:42.678Z,7.47
2022-10-19T19:41:12.430Z,9.07
2022-10-19T19:43:39.555Z,9.40
2022-10-19T19:46:09.487Z,8.00
2022-10-19T19:48:37.039Z,6.15
2022-10-19T19:51:03.822Z,6.60
2022-10-19T19:53:30.964Z,6.57
2022-10-19T19:55:57.522Z,6.55
2022-10-19T19:58:24.077Z,6.88
2022-10-19T20:00:50.699Z,6.80
2022-10-19T20:03:17.267Z,7.97
2022-10-19T20:05:43.804Z,7.13
2022-10-19T20:08:11.228Z,6.90
2022-10-19T20:10:39.712Z,7.40
2022-10-19T20:13:06.309Z,7.72
2022-10-19T20:15:33.045Z,7.03
2022-10-19T20:17:59.650Z,7.30
2022-10-19T20:20:26.301Z,7.15
2022-10-19T20:22:52.961Z,6.60
2022-10-19T20:25:19.609Z,6.82
2022-10-19T20:27:46.224Z,6.97
2022-10-19T20:30:12.918Z,7.05
2022-10-19T20:32:39.556Z,6.80
2022-10-19T20:35:07.323Z,7.15
2022-10-19T20:37:34.303Z,6.70
2022-10-19T20:40:07.445Z,6.47
2022-10-19T20:42:36.139Z,8.05
2022-10-19T20:45:03.346Z,7.50
2022-10-19T20:47:30.049Z,5.90
2022-10-19T20:49:56.639Z,6.20
2022-10-19T20:52:23.301Z,6.00
2022-10-19T20:54:49.885Z,6.28
2022-10-19T20:57:16.451Z,5.60
2022-10-19T20:59:43.971Z,5.53
2022-10-19T21:02:11.061Z,5.65
2022-10-19T21:04:37.772Z,5.95
2022-10-19T21:07:05.037Z,6.10
2022-10-19T21:09:31.928Z,6.40
2022-10-19T21:11:58.566Z,5.70
2022-10-19T21:14:30.030Z,5.97
2022-10-19T21:19:26.127Z,5.07
2022-10-19T21:21:55.838Z,4.70
2022-10-19T21:24:28.471Z,4.45
2022-10-19T21:26:55.359Z,4.10
2022-10-19T21:29:21.982Z,4.60
2022-10-19T21:31:52.095Z,5.05
2022-10-19T21:34:26.802Z,4.78
2022-10-19T21:36:54.031Z,5.10
2022-10-19T21:39:21.278Z,4.47
2022-10-19T21:41:48.358Z,5.10
2022-10-19T21:44:17.027Z,5.03
2022-10-19T21:46:46.690Z,5.43
2022-10-19T21:49:13.269Z,4.82
2022-10-19T21:51:44.530Z,4.88
2022-10-19T21:54:13.429Z,5.10
2022-10-19T21:56:40.061Z,5.28
2022-10-19T21:59:06.749Z,4.82
2022-10-19T22:01:38.618Z,4.97
2022-10-19T22:04:11.734Z,4.57
2022-10-19T22:06:39.265Z,5.80
2022-10-19T22:09:08.325Z,5.10
2022-10-19T22:11:34.962Z,4.90
2022-10-19T22:14:03.081Z,4.45
2022-10-19T22:16:31.101Z,6.85
2022-10-19T22:18:57.925Z,6.20
2022-10-19T22:21:30.584Z,5.38
2022-10-19T22:24:03.496Z,5.30
2022-10-19T22:26:35.559Z,5.00
2022-10-19T22:29:04.103Z,4.93
2022-10-19T22:31:31.922Z,5.07
2022-10-19T22:34:00.862Z,5.22
2022-10-19T22:36:27.439Z,4.95
2022-10-19T22:38:55.049Z,5.15
2022-10-19T22:41:21.563Z,4.60
2022-10-19T22:43:48.220Z,4.93
2022-10-19T22:46:14.784Z,5.15
2022-10-19T22:48:41.346Z,4.95
2022-10-19T22:51:07.992Z,4.78
2022-10-19T22:53:34.657Z,4.20
2022-10-19T22:56:01.470Z,5.65
2022-10-19T22:58:28.125Z,5.55
2022-10-19T23:01:06.595Z,6.03
2022-10-19T23:03:33.831Z,6.40
2022-10-19T23:06:00.419Z,6.05
2022-10-19T23:08:27.121Z,6.20
2022-10-19T23:10:53.781Z,5.57
2022-10-19T23:13:20.755Z,4.45
2022-10-19T23:15:47.580Z,5.93
2022-10-19T23:18:14.161Z,4.70
2022-10-19T23:20:40.880Z,4.47
2022-10-19T23:23:07.645Z,4.90
2022-10-19T23:25:34.275Z,5.13
2022-10-19T23:28:00.834Z,5.32
2022-10-19T23:30:27.580Z,4.40
2022-10-19T23:32:54.178Z,4.65
2022-10-19T23:35:20.690Z,4.30
2022-10-19T23:37:47.258Z,4.63
2022-10-19T23:40:13.825Z,4.40
2022-10-19T23:42:40.557Z,4.50
2022-10-19T23:45:07.411Z,5.10
2022-10-19T23:47:34.187Z,4.47
2022-10-19T23:50:01.030Z,5.10
2022-10-19T23:52:28.474Z,4.70
2022-10-19T23:54:55.048Z,4.90
2022-10-19T23:57:21.571Z,5.00
2022-10-19T23:59:48.142Z,4.82
